Time;durP1;ratioP1;P1;durP2;ratioP2;P2;SDS_P1;SDS_P2;PMS_P1;PMS_P2;Temp;Humidity;BMP_temperature;BMP_pressure;BME280_temperature;BME280_humidity;BME280_pressure;Samples;Min_cycle;Max_cycle;Signal;HPM_P1;HPM_P2
2024/02/03 00:04:47;;;;;;;13.43;6.50;;;10.30;88.20;;;;;;20659460;28;20061;-40
2024/02/03 00:14:47;;;;;;;17.95;7.00;;;10.30;87.00;;;;;;20672286;28;20042;-40
2024/02/03 00:24:48;;;;;;;19.60;5.70;;;10.40;80.50;;;;;;20670831;28;20867;-39
2024/02/03 00:34:49;;;;;;;10.85;5.05;;;10.30;82.70;;;;;;20671546;28;20030;-40
2024/02/03 00:44:49;;;;;;;18.55;5.28;;;10.30;76.40;;;;;;20669875;28;20046;-40
2024/02/03 00:54:50;;;;;;;12.18;4.53;;;10.40;79.10;;;;;;20671675;28;20038;-40
2024/02/03 01:04:50;;;;;;;10.57;3.90;;;10.30;84.40;;;;;;20669826;28;20066;-39
2024/02/03 01:14:51;;;;;;;16.70;4.30;;;10.40;75.00;;;;;;20672745;28;20111;-40
2024/02/03 01:24:52;;;;;;;7.93;3.40;;;10.40;78.70;;;;;;20667126;28;20046;-40
2024/02/03 01:34:52;;;;;;;14.68;3.05;;;10.40;77.50;;;;;;20667012;28;20058;-39
2024/02/03 01:44:53;;;;;;;9.53;3.57;;;10.50;70.20;;;;;;20672134;28;20089;-40
2024/02/03 01:54:54;;;;;;;8.60;3.03;;;10.50;68.00;;;;;;20668742;28;20942;-40
2024/02/03 02:04:55;;;;;;;12.70;3.40;;;10.50;69.40;;;;;;20664518;28;20556;-40
2024/02/03 02:14:55;;;;;;;12.15;3.15;;;10.50;62.30;;;;;;20666670;28;20085;-39
2024/02/03 02:24:56;;;;;;;8.38;2.65;;;10.50;78.40;;;;;;20665762;28;20164;-40
2024/02/03 02:34:57;;;;;;;13.15;2.97;;;10.50;82.60;;;;;;20662560;28;20065;-40
2024/02/03 02:44:57;;;;;;;12.15;2.80;;;10.50;93.90;;;;;;20656493;28;20139;-40
2024/02/03 02:54:58;;;;;;;10.38;2.35;;;10.50;90.30;;;;;;20658693;28;20044;-39
2024/02/03 03:04:58;;;;;;;8.25;2.28;;;10.50;90.50;;;;;;20662001;28;20069;-40
2024/02/03 03:14:59;;;;;;;11.07;2.42;;;10.60;86.80;;;;;;20655317;28;20591;-40
2024/02/03 03:24:59;;;;;;;9.95;2.17;;;10.60;79.00;;;;;;20653358;28;20041;-40
2024/02/03 03:35:00;;;;;;;11.88;2.15;;;10.60;68.00;;;;;;20651871;28;20035;-39
2024/02/03 03:45:00;;;;;;;10.43;2.63;;;10.60;67.80;;;;;;20659361;28;20137;-40
2024/02/03 03:55:01;;;;;;;11.10;2.15;;;10.70;58.30;;;;;;20659758;28;20037;-40
2024/02/03 04:05:02;;;;;;;12.30;2.72;;;10.70;56.80;;;;;;20662974;28;20046;-39
2024/02/03 04:15:02;;;;;;;7.45;2.55;;;10.70;55.80;;;;;;20669087;28;20042;-40
2024/02/03 04:25:03;;;;;;;14.65;2.28;;;10.70;52.70;;;;;;20659013;28;20076;-40
2024/02/03 04:35:05;;;;;;;11.13;2.38;;;10.70;47.30;;;;;;20661113;28;20038;-40
2024/02/03 04:45:06;;;;;;;10.57;2.28;;;10.70;51.70;;;;;;20667457;28;20529;-40
2024/02/03 04:55:07;;;;;;;9.80;2.10;;;10.70;52.80;;;;;;20672133;28;20546;-40
2024/02/03 05:05:08;;;;;;;12.73;2.70;;;10.80;51.10;;;;;;20671932;28;20046;-40
2024/02/03 05:15:09;;;;;;;10.68;2.47;;;10.90;46.90;;;;;;20672415;28;20099;-40
2024/02/03 05:25:11;;;;;;;9.40;1.80;;;10.80;44.90;;;;;;20672041;28;20046;-40
2024/02/03 05:35:11;;;;;;;9.52;2.65;;;10.70;50.10;;;;;;20675190;28;20458;-40
2024/02/03 05:45:12;;;;;;;10.88;2.45;;;10.60;56.60;;;;;;20670983;28;20080;-40
2024/02/03 05:55:13;;;;;;;13.85;2.70;;;10.60;57.60;;;;;;20669601;28;20038;-40
2024/02/03 06:05:15;;;;;;;16.38;2.35;;;10.50;61.30;;;;;;20666593;28;20360;-40
2024/02/03 06:15:16;;;;;;;10.25;2.38;;;10.70;63.50;;;;;;20667164;28;20127;-39
2024/02/03 06:25:16;;;;;;;13.80;2.77;;;10.70;68.40;;;;;;20667517;28;20129;-40
2024/02/03 06:35:17;;;;;;;11.10;2.45;;;10.60;64.40;;;;;;20666686;28;21011;-39
2024/02/03 06:45:18;;;;;;;10.77;3.03;;;10.70;63.00;;;;;;20660758;28;20054;-40
2024/02/03 06:55:18;;;;;;;11.40;3.17;;;10.70;64.30;;;;;;20665067;28;20034;-39
2024/02/03 07:05:19;;;;;;;12.32;3.15;;;10.70;66.00;;;;;;20661104;28;21113;-40
2024/02/03 07:15:19;;;;;;;10.60;3.10;;;10.60;70.20;;;;;;20659356;28;20061;-39
2024/02/03 07:25:20;;;;;;;14.40;3.20;;;10.70;60.20;;;;;;20661889;28;20136;-39
2024/02/03 07:35:21;;;;;;;13.38;2.97;;;10.70;68.70;;;;;;20665607;28;20088;-40
2024/02/03 07:45:22;;;;;;;8.98;3.00;;;10.70;66.40;;;;;;20658470;28;20078;-39
2024/02/03 07:55:23;;;;;;;10.80;2.85;;;10.80;63.40;;;;;;20667091;28;20046;-40
2024/02/03 08:05:24;;;;;;;10.32;2.38;;;10.80;69.20;;;;;;20660486;28;20401;-40
2024/02/03 08:15:25;;;;;;;10.52;2.42;;;10.80;72.80;;;;;;20628674;28;20049;-40
2024/02/03 08:25:26;;;;;;;8.70;2.10;;;10.80;71.50;;;;;;20669285;28;20060;-40
2024/02/03 08:35:27;;;;;;;7.95;2.28;;;10.90;72.50;;;;;;20665827;28;20035;-40
2024/02/03 08:45:27;;;;;;;12.73;2.08;;;10.80;70.10;;;;;;20664712;28;20900;-40
2024/02/03 08:55:28;;;;;;;10.57;2.47;;;10.90;67.70;;;;;;20650149;28;20501;-40
2024/02/03 09:05:29;;;;;;;11.23;2.42;;;10.90;68.30;;;;;;20657320;28;20406;-40
2024/02/03 09:15:30;;;;;;;11.50;2.10;;;10.90;62.30;;;;;;20641283;28;20533;-40
2024/02/03 09:25:30;;;;;;;8.57;2.38;;;11.00;73.20;;;;;;20638669;28;20069;-40
2024/02/03 09:35:31;;;;;;;10.45;2.28;;;11.10;62.70;;;;;;20657966;28;20413;-40
2024/02/03 09:45:31;;;;;;;10.60;2.00;;;11.10;60.50;;;;;;20666134;28;20382;-40
2024/02/03 09:55:32;;;;;;;11.57;2.53;;;11.30;51.60;;;;;;20652111;28;20525;-40
2024/02/03 10:05:32;;;;;;;7.70;2.00;;;11.30;56.60;;;;;;20667967;28;20508;-40
2024/02/03 10:15:34;;;;;;;7.20;1.67;;;11.40;45.60;;;;;;20648898;28;20061;-40
2024/02/03 10:25:35;;;;;;;9.88;2.63;;;11.20;53.30;;;;;;20641079;28;20127;-40
2024/02/03 10:35:36;;;;;;;11.13;2.50;;;11.20;52.70;;;;;;20653542;28;20038;-41
2024/02/03 10:45:42;;;;;;;9.82;2.13;;;11.20;60.00;;;;;;20659224;28;20469;-41
2024/02/03 10:55:54;;;;;;;8.40;2.20;;;11.30;66.10;;;;;;20622790;28;20034;-41
2024/02/03 11:05:55;;;;;;;13.23;3.97;;;11.40;60.30;;;;;;20639492;28;20053;-41
2024/02/03 11:15:59;;;;;;;10.23;1.88;;;11.50;62.10;;;;;;20652208;28;20037;-41
2024/02/03 11:26:00;;;;;;;7.22;1.85;;;11.40;68.10;;;;;;20649495;28;20052;-41
2024/02/03 11:36:02;;;;;;;9.75;2.42;;;11.50;60.00;;;;;;20649583;28;20505;-41
2024/02/03 11:46:05;;;;;;;7.25;1.95;;;11.60;61.60;;;;;;20663616;28;20406;-41
2024/02/03 11:56:06;;;;;;;8.10;2.28;;;11.70;66.70;;;;;;20675613;28;20056;-41
2024/02/03 12:06:07;;;;;;;8.13;2.53;;;11.70;79.80;;;;;;20674562;28;20121;-41
2024/02/03 12:16:08;;;;;;;8.85;2.95;;;11.70;99.90;;;;;;20684462;28;20042;-41
2024/02/03 12:26:09;;;;;;;8.88;3.53;;;11.70;99.90;;;;;;20690088;28;20045;-40
2024/02/03 12:36:10;;;;;;;7.13;3.88;;;11.70;99.90;;;;;;20688428;28;20033;-41
2024/02/03 12:46:11;;;;;;;7.30;3.70;;;11.70;98.20;;;;;;20678888;28;20038;-41
2024/02/03 12:56:11;;;;;;;7.82;4.40;;;11.80;99.90;;;;;;20683337;28;20081;-40
2024/02/03 13:06:12;;;;;;;12.20;5.47;;;11.90;98.60;;;;;;20682895;28;20121;-40
2024/02/03 13:16:13;;;;;;;8.93;4.28;;;12.00;92.30;;;;;;20677774;28;20038;-41
2024/02/03 13:26:14;;;;;;;10.18;3.53;;;12.10;89.30;;;;;;20676056;28;20428;-41
2024/02/03 13:36:14;;;;;;;7.13;2.70;;;12.10;65.30;;;;;;20673087;28;20089;-41
2024/02/03 13:46:15;;;;;;;10.02;2.88;;;12.00;65.10;;;;;;20634454;28;20054;-41
2024/02/03 13:56:17;;;;;;;12.73;2.78;;;11.90;69.80;;;;;;20663968;28;20061;-41
2024/02/03 14:06:18;;;;;;;9.30;2.78;;;12.10;64.50;;;;;;20656156;28;20049;-41
2024/02/03 14:16:18;;;;;;;9.63;2.80;;;12.10;58.70;;;;;;20670308;28;20104;-41
2024/02/03 14:26:19;;;;;;;9.15;2.20;;;12.10;57.50;;;;;;20675296;28;20457;-41
2024/02/03 14:36:19;;;;;;;7.00;1.85;;;12.10;50.60;;;;;;20671957;28;20091;-41
2024/02/03 14:46:20;;;;;;;6.63;2.20;;;12.10;50.70;;;;;;20673419;28;20145;-41
2024/02/03 14:56:21;;;;;;;9.60;1.88;;;12.10;45.20;;;;;;20667478;28;20140;-40
2024/02/03 15:06:22;;;;;;;9.75;2.17;;;12.20;40.90;;;;;;20670767;28;20046;-41
2024/02/03 15:16:22;;;;;;;8.63;2.10;;;12.20;38.10;;;;;;20670022;28;20046;-40
2024/02/03 15:26:23;;;;;;;11.65;2.38;;;12.20;33.90;;;;;;20669695;28;20117;-40
2024/02/03 15:36:25;;;;;;;11.27;2.10;;;12.00;36.20;;;;;;20666831;28;20125;-41
2024/02/03 15:46:25;;;;;;;9.38;1.83;;;12.10;37.30;;;;;;20667013;28;20133;-40
2024/02/03 15:56:26;;;;;;;6.73;2.23;;;12.00;32.70;;;;;;20667045;28;20038;-41
2024/02/03 16:06:27;;;;;;;6.50;1.90;;;11.80;34.70;;;;;;20668572;28;20042;-41
2024/02/03 16:16:28;;;;;;;10.23;2.30;;;11.70;40.60;;;;;;20668423;28;20046;-41
2024/02/03 16:26:29;;;;;;;9.02;2.40;;;11.70;41.90;;;;;;20656920;28;20041;-41
2024/02/03 16:36:31;;;;;;;8.73;3.08;;;11.40;43.50;;;;;;20670255;28;20065;-41
2024/02/03 16:46:32;;;;;;;13.75;3.30;;;11.30;43.20;;;;;;20682459;28;20038;-41
2024/02/03 16:56:32;;;;;;;12.00;2.85;;;11.10;51.40;;;;;;20677392;28;20332;-41
2024/02/03 17:06:35;;;;;;;10.37;2.63;;;10.90;57.60;;;;;;20682216;28;20093;-41
2024/02/03 17:16:36;;;;;;;9.25;2.88;;;10.60;68.20;;;;;;20679360;28;20497;-41
2024/02/03 17:26:36;;;;;;;10.40;3.55;;;10.50;81.90;;;;;;20678614;28;20512;-40
2024/02/03 17:36:37;;;;;;;12.02;3.75;;;10.50;81.80;;;;;;20673315;28;20293;-41
2024/02/03 17:46:37;;;;;;;13.80;4.82;;;10.40;76.60;;;;;;20675153;28;20073;-41
2024/02/03 17:56:38;;;;;;;15.48;4.60;;;10.40;78.20;;;;;;20669857;28;20595;-40
2024/02/03 18:06:39;;;;;;;12.90;4.70;;;10.40;84.10;;;;;;20669167;28;20049;-41
2024/02/03 18:16:39;;;;;;;17.75;4.90;;;10.30;91.80;;;;;;20667105;28;20560;-41
2024/02/03 18:26:40;;;;;;;14.70;4.83;;;10.40;93.70;;;;;;20664495;28;20046;-40
2024/02/03 18:36:42;;;;;;;20.20;5.65;;;10.40;90.20;;;;;;20673270;28;20472;-41
2024/02/03 18:46:43;;;;;;;18.27;5.70;;;10.30;99.90;;;;;;20672946;28;20351;-41
2024/02/03 18:56:43;;;;;;;17.00;5.20;;;10.40;99.90;;;;;;20670481;28;20437;-41
2024/02/03 19:06:44;;;;;;;18.38;5.97;;;10.40;99.90;;;;;;20669543;28;20092;-41
2024/02/03 19:16:45;;;;;;;21.42;6.40;;;10.40;99.90;;;;;;20668357;28;20046;-41
2024/02/03 19:26:46;;;;;;;19.08;6.53;;;10.60;99.90;;;;;;20667496;28;20622;-40
2024/02/03 19:36:46;;;;;;;23.90;6.45;;;10.70;99.90;;;;;;20668650;28;20086;-41
2024/02/03 19:46:49;;;;;;;22.50;6.00;;;10.70;99.90;;;;;;20665988;28;20037;-40
2024/02/03 19:56:50;;;;;;;22.30;6.07;;;10.80;97.00;;;;;;20666262;28;20088;-40
2024/02/03 20:06:51;;;;;;;20.90;5.97;;;10.80;99.90;;;;;;20665038;28;20038;-40
2024/02/03 20:16:51;;;;;;;20.42;6.30;;;10.80;98.00;;;;;;20674746;28;20034;-40
2024/02/03 20:26:52;;;;;;;19.27;6.27;;;10.90;99.90;;;;;;20683328;28;20498;-40
2024/02/03 20:36:52;;;;;;;16.25;5.18;;;10.90;99.90;;;;;;20679917;28;20465;-40
2024/02/03 20:46:53;;;;;;;16.13;4.97;;;11.00;99.90;;;;;;20675357;28;20474;-41
2024/02/03 20:56:54;;;;;;;15.10;5.38;;;11.00;99.90;;;;;;20666551;28;20046;-41
2024/02/03 21:06:54;;;;;;;22.38;7.10;;;11.00;99.90;;;;;;20670310;28;20050;-40
2024/02/03 21:16:56;;;;;;;20.17;7.37;;;11.10;99.90;;;;;;20669376;28;20042;-40
2024/02/03 21:26:57;;;;;;;19.67;7.82;;;11.10;99.90;;;;;;20662247;28;20038;-41
2024/02/03 21:36:58;;;;;;;19.77;7.70;;;11.20;99.90;;;;;;20664165;28;20481;-41
2024/02/03 21:46:59;;;;;;;21.00;6.30;;;11.30;99.90;;;;;;20667619;28;20473;-41
2024/02/03 21:56:59;;;;;;;19.35;7.20;;;11.20;99.90;;;;;;20671490;28;20038;-41
2024/02/03 22:07:00;;;;;;;17.83;7.85;;;11.30;99.90;;;;;;20671866;28;20806;-40
2024/02/03 22:17:00;;;;;;;20.00;8.27;;;11.20;99.90;;;;;;20675899;28;20088;-41
2024/02/03 22:27:01;;;;;;;25.63;8.63;;;11.20;99.90;;;;;;20673628;28;20049;-41
2024/02/03 22:37:02;;;;;;;19.65;9.55;;;11.10;99.90;;;;;;20678630;28;21070;-41
2024/02/03 22:47:02;;;;;;;17.13;8.10;;;11.10;99.90;;;;;;20674397;28;21138;-41
2024/02/03 22:57:03;;;;;;;18.53;8.13;;;11.10;99.90;;;;;;20674055;28;20046;-40
2024/02/03 23:07:05;;;;;;;16.38;8.23;;;11.00;99.90;;;;;;20673026;28;20933;-41
2024/02/03 23:17:06;;;;;;;20.33;9.02;;;11.00;99.90;;;;;;20667136;28;20038;-40
2024/02/03 23:27:06;;;;;;;16.50;8.77;;;10.90;99.90;;;;;;20665382;28;20141;-41
2024/02/03 23:37:07;;;;;;;20.08;10.07;;;10.80;99.90;;;;;;20661290;28;20442;-41
2024/02/03 23:47:07;;;;;;;26.58;10.45;;;10.70;99.90;;;;;;20663412;28;20045;-41
2024/02/03 23:57:08;;;;;;;23.30;9.90;;;10.60;99.90;;;;;;20662650;28;20042;-41
